CBR weather

Canberra International Airport
Canberra, Australian Capital Territory, Australia

Public forecast

Using degrees Celsius for public forecast. Weather courtesy of forecast.io.

METAR (pilot weather report)

Retrieved 2017/11/22 06:30 UTC (0 seconds ago):

YSCB 220630Z 04007KT 9999 FEW055 FEW055CB 25/05 Q1015 NOSIG

TAF (pilot weather forecast)

Retrieved 2017/11/22 06:45 UTC (0 seconds ago):

TAF YSCB 220542Z 2206/2306 04010KT CAVOK FM221300 09008KT 9999 BKN020 BECMG 2220/2222 36005KT 9999 SCT030 FM230200 33008KT 9999 -SHRA SCT050